Lewisville's Hourly Summary for Sunday, March 19, 2017
Hour Temp
(f)
RH
(%)
Solar Rad.
(MJ/m2)
Rainfall
(in)
Wind
(mph)
3/19/2017 12:00 AM 70 69 0 0 1.95
3/19/2017 1:00 AM 68 74 0 0 0.14
3/19/2017 2:00 AM 65 83 0 0 0
3/19/2017 3:00 AM 64 85 0 0 0
3/19/2017 4:00 AM 63 89 0 0 0
3/19/2017 5:00 AM 63 87 0 0 1.52
3/19/2017 6:00 AM 64 86 0 0 2.46
3/19/2017 7:00 AM 63 88 0 0 2.84
3/19/2017 8:00 AM 62 92 0.03 0 3.17
3/19/2017 9:00 AM 65 86 0.51 0 4.14
3/19/2017 10:00 AM 68 82 0.86 0 7.39
3/19/2017 11:00 AM 70 73 1.75 0 8.16
3/19/2017 12:00 PM 73 67 2.23 0 8.45
3/19/2017 1:00 PM 76 62 2.71 0 10.19
3/19/2017 2:00 PM 78 57 2.81 0 11.26
3/19/2017 3:00 PM 80 51 2.69 0 11.61
3/19/2017 4:00 PM 81 46 2.37 0 13.12
3/19/2017 5:00 PM 83 43 1.86 0 11.89
3/19/2017 6:00 PM 82 45 1.21 0 11.21
3/19/2017 7:00 PM 81 47 0.55 0 11.1
3/19/2017 8:00 PM 78 53 0.06 0 11.5
3/19/2017 9:00 PM 76 58 0 0 9.35
3/19/2017 10:00 PM 75 60 0 0 10.81
3/19/2017 11:00 PM 74 61 0 0 9.89
Data Summary 71 68 19.64 0.00 6.76